createdAt,value
2023-05-03T00:00:18.115Z,2.39
2023-05-03T00:01:18.085Z,2.50
2023-05-03T00:02:19.143Z,2.49
2023-05-03T00:03:18.098Z,2.61
2023-05-03T00:04:18.085Z,2.54
2023-05-03T00:05:18.109Z,2.32
2023-05-03T00:06:18.075Z,2.28
2023-05-03T00:07:18.063Z,2.46
2023-05-03T00:08:18.128Z,2.36
2023-05-03T00:09:18.055Z,2.25
2023-05-03T00:10:18.022Z,2.06
2023-05-03T00:11:18.030Z,2.04
2023-05-03T00:12:18.028Z,1.94
2023-05-03T00:13:18.010Z,2.02
2023-05-03T00:14:18.028Z,1.85
2023-05-03T00:15:18.010Z,1.68
2023-05-03T00:16:18.004Z,1.60
2023-05-03T00:17:17.990Z,1.67
2023-05-03T00:18:17.995Z,1.73
2023-05-03T00:19:28.110Z,1.80
2023-05-03T00:20:19.971Z,1.85
2023-05-03T00:21:17.980Z,2.25
2023-05-03T00:22:17.950Z,2.35
2023-05-03T00:23:17.952Z,2.56
2023-05-03T00:24:17.969Z,2.64
2023-05-03T00:25:17.939Z,2.29
2023-05-03T00:26:17.935Z,2.15
2023-05-03T00:27:17.918Z,1.92
2023-05-03T00:28:18.156Z,1.87
2023-05-03T00:29:17.930Z,1.94
2023-05-03T00:30:18.143Z,1.73
2023-05-03T00:31:17.935Z,1.63
2023-05-03T00:32:17.899Z,1.66
2023-05-03T00:33:17.936Z,1.74
2023-05-03T00:34:17.898Z,1.63
2023-05-03T00:35:17.882Z,1.56
2023-05-03T00:36:17.885Z,1.66
2023-05-03T00:37:17.875Z,1.73
2023-05-03T00:38:17.854Z,1.74
2023-05-03T00:39:18.145Z,1.71
2023-05-03T00:40:17.835Z,1.71
2023-05-03T00:41:17.823Z,1.68
2023-05-03T00:42:18.907Z,1.62
2023-05-03T00:43:17.814Z,1.62
2023-05-03T00:44:17.842Z,1.56
2023-05-03T00:45:17.805Z,1.53
2023-05-03T00:46:17.906Z,1.45
2023-05-03T00:47:17.880Z,1.56
2023-05-03T00:48:17.782Z,1.58
2023-05-03T00:49:17.794Z,1.66
2023-05-03T00:50:17.786Z,1.60
2023-05-03T00:51:17.777Z,1.53
2023-05-03T00:52:17.760Z,1.50
2023-05-03T00:53:17.765Z,1.38
2023-05-03T00:54:17.780Z,1.19
2023-05-03T00:55:17.744Z,1.37
2023-05-03T00:56:17.763Z,1.49
2023-05-03T00:57:17.730Z,1.60
2023-05-03T00:58:17.724Z,1.58
2023-05-03T00:59:17.750Z,1.53
2023-05-03T01:00:17.724Z,1.48
2023-05-03T01:01:17.744Z,1.41
2023-05-03T01:02:17.698Z,1.40
2023-05-03T01:03:17.793Z,1.35
2023-05-03T01:04:17.710Z,1.40
2023-05-03T01:05:17.708Z,1.28
2023-05-03T01:06:17.790Z,1.17
2023-05-03T01:07:17.687Z,0.94
2023-05-03T01:08:17.671Z,0.91
2023-05-03T01:09:17.791Z,0.95
2023-05-03T01:10:17.670Z,1.19
2023-05-03T01:11:17.667Z,1.34
2023-05-03T01:12:17.648Z,1.35
2023-05-03T01:13:17.649Z,1.44
2023-05-03T01:14:17.649Z,1.37
2023-05-03T01:15:17.623Z,1.22
2023-05-03T01:16:17.642Z,1.08
2023-05-03T01:17:17.621Z,0.95
2023-05-03T01:18:17.627Z,1.02
2023-05-03T01:19:17.727Z,1.10
2023-05-03T01:20:17.608Z,1.32
2023-05-03T01:21:17.612Z,1.30
2023-05-03T01:22:17.581Z,1.32
2023-05-03T01:23:17.568Z,1.02
2023-05-03T01:24:17.584Z,1.04
2023-05-03T01:25:17.569Z,0.87
2023-05-03T01:26:17.559Z,0.88
2023-05-03T01:27:17.559Z,1.06
2023-05-03T01:28:17.536Z,1.28
2023-05-03T01:29:17.557Z,1.42
2023-05-03T01:30:17.540Z,1.48
2023-05-03T01:31:17.557Z,1.50
2023-05-03T01:32:17.521Z,1.23
2023-05-03T01:33:17.524Z,1.02
2023-05-03T01:34:17.561Z,1.08
2023-05-03T01:35:18.096Z,1.31
2023-05-03T01:36:17.506Z,1.38
2023-05-03T01:37:17.488Z,1.30
2023-05-03T01:38:17.497Z,1.23
2023-05-03T01:39:17.499Z,1.48
2023-05-03T01:40:17.471Z,1.40
2023-05-03T01:41:17.481Z,1.14
2023-05-03T01:42:17.467Z,0.98
2023-05-03T01:43:17.680Z,0.98
2023-05-03T01:44:17.463Z,0.86
2023-05-03T01:45:17.631Z,0.86
2023-05-03T01:46:17.578Z,0.74
2023-05-03T01:47:17.490Z,0.80
2023-05-03T01:48:17.455Z,0.78
2023-05-03T01:49:17.516Z,0.73
2023-05-03T01:50:17.529Z,0.77
2023-05-03T01:51:18.019Z,0.78
2023-05-03T01:52:17.447Z,0.81
2023-05-03T01:53:17.631Z,0.87
2023-05-03T01:54:17.422Z,0.76
2023-05-03T01:55:17.473Z,0.68
2023-05-03T01:56:17.480Z,0.58
2023-05-03T01:57:17.509Z,0.52
2023-05-03T01:58:17.409Z,0.65
2023-05-03T01:59:17.493Z,0.84
2023-05-03T02:00:17.483Z,0.84
2023-05-03T02:01:17.403Z,0.92
2023-05-03T02:02:17.336Z,0.94
2023-05-03T02:03:17.336Z,0.98
2023-05-03T02:04:18.470Z,0.91
2023-05-03T02:05:17.680Z,1.02
2023-05-03T02:06:17.339Z,1.04
2023-05-03T02:07:17.312Z,0.92
2023-05-03T02:08:17.307Z,0.81
2023-05-03T02:09:17.329Z,0.65
2023-05-03T02:10:17.293Z,0.52
2023-05-03T02:11:17.284Z,0.60
2023-05-03T02:12:17.330Z,0.77
2023-05-03T02:13:17.307Z,0.70
2023-05-03T02:14:17.284Z,0.73
2023-05-03T02:15:17.268Z,0.56
2023-05-03T02:16:17.289Z,0.46
2023-05-03T02:17:17.313Z,0.39
2023-05-03T02:18:17.260Z,0.55
2023-05-03T02:19:18.052Z,0.41
2023-05-03T02:20:17.268Z,0.58
2023-05-03T02:21:17.225Z,0.70
2023-05-03T02:22:17.370Z,0.84
2023-05-03T02:23:17.306Z,0.98
2023-05-03T02:24:17.213Z,1.06
2023-05-03T02:25:17.200Z,0.91
2023-05-03T02:26:17.184Z,1.06
2023-05-03T02:27:17.198Z,0.98
2023-05-03T02:28:17.187Z,1.04
2023-05-03T02:29:17.220Z,1.02
2023-05-03T02:30:18.045Z,0.87
2023-05-03T02:31:17.350Z,0.95
2023-05-03T02:32:17.233Z,0.94
2023-05-03T02:33:17.184Z,0.73
2023-05-03T02:34:17.609Z,0.55
2023-05-03T02:35:17.185Z,0.56
2023-05-03T02:36:18.055Z,0.32
2023-05-03T02:37:17.122Z,0.41
2023-05-03T02:38:17.117Z,0.60
2023-05-03T02:39:17.135Z,0.59
2023-05-03T02:40:17.113Z,0.50
2023-05-03T02:41:17.304Z,0.47
2023-05-03T02:42:17.230Z,0.49
2023-05-03T02:43:17.130Z,0.62
2023-05-03T02:44:17.204Z,0.65
2023-05-03T02:45:17.098Z,0.49
2023-05-03T02:46:17.325Z,0.49
2023-05-03T02:47:17.151Z,0.41
2023-05-03T02:48:17.136Z,0.40
2023-05-03T02:49:17.108Z,0.44
2023-05-03T02:50:17.047Z,0.43
2023-05-03T02:51:17.029Z,0.39
2023-05-03T02:52:17.026Z,0.44
2023-05-03T02:53:17.036Z,0.36
2023-05-03T02:54:17.038Z,0.26
2023-05-03T02:55:17.011Z,0.25
2023-05-03T02:56:17.002Z,0.19
2023-05-03T02:57:17.000Z,0.29
2023-05-03T02:58:16.984Z,0.39
2023-05-03T02:59:17.012Z,0.26
2023-05-03T03:00:17.236Z,0.40
2023-05-03T03:01:17.064Z,0.39
2023-05-03T03:02:17.224Z,0.43
2023-05-03T03:03:17.236Z,0.32
2023-05-03T03:04:17.011Z,0.28
2023-05-03T03:05:17.143Z,0.40
2023-05-03T03:06:17.010Z,0.28
2023-05-03T03:07:17.073Z,0.26
2023-05-03T03:08:16.984Z,0.32
2023-05-03T03:09:16.947Z,0.23
2023-05-03T03:10:17.135Z,0.08
2023-05-03T03:11:16.901Z,0.23
2023-05-03T03:12:16.896Z,0.12
2023-05-03T03:13:16.896Z,0.22
2023-05-03T03:14:16.918Z,0.21
2023-05-03T03:15:16.896Z,0.19
2023-05-03T03:16:16.909Z,0.21
2023-05-03T03:17:16.935Z,0.32
2023-05-03T03:18:17.747Z,0.43
2023-05-03T03:19:17.865Z,0.43
2023-05-03T03:20:16.847Z,0.41
2023-05-03T03:21:16.840Z,0.36
2023-05-03T03:22:16.828Z,0.19
2023-05-03T03:23:16.857Z,0.04
2023-05-03T03:24:17.822Z,0.23
2023-05-03T03:25:16.804Z,0.21
2023-05-03T03:26:16.819Z,0.08
2023-05-03T03:27:16.812Z,-0.06
2023-05-03T03:28:16.870Z,0.16
2023-05-03T03:29:17.530Z,0.05
2023-05-03T03:30:16.782Z,0.04
2023-05-03T03:31:18.087Z,-0.10
2023-05-03T03:32:16.772Z,-0.25
2023-05-03T03:33:16.788Z,-0.28
2023-05-03T03:34:16.776Z,-0.17
2023-05-03T03:35:16.750Z,0.00
2023-05-03T03:36:16.762Z,0.15
2023-05-03T03:37:16.740Z,0.36
2023-05-03T03:38:16.731Z,0.39
2023-05-03T03:39:16.737Z,0.46
2023-05-03T03:40:16.720Z,0.47
2023-05-03T03:41:16.737Z,0.46
2023-05-03T03:42:18.007Z,0.40
2023-05-03T03:43:16.719Z,0.26
2023-05-03T03:44:16.742Z,0.40
2023-05-03T03:45:16.687Z,0.34
2023-05-03T03:46:16.741Z,0.34
2023-05-03T03:47:16.752Z,0.52
2023-05-03T03:48:16.731Z,0.36
2023-05-03T03:49:16.684Z,0.31
2023-05-03T03:50:16.659Z,0.21
2023-05-03T03:51:16.653Z,0.23
2023-05-03T03:52:16.648Z,0.36
2023-05-03T03:53:16.643Z,0.55
2023-05-03T03:54:16.657Z,0.44
2023-05-03T03:55:16.640Z,0.32
2023-05-03T03:56:16.624Z,0.26
2023-05-03T03:57:16.636Z,0.25
2023-05-03T03:58:16.616Z,0.11
2023-05-03T03:59:16.643Z,0.01
2023-05-03T04:00:16.595Z,-0.02
2023-05-03T04:01:16.614Z,-0.03
2023-05-03T04:02:16.646Z,0.11
2023-05-03T04:03:16.726Z,0.18
2023-05-03T04:04:16.808Z,0.41
2023-05-03T04:05:16.580Z,0.56
2023-05-03T04:06:16.589Z,0.55
2023-05-03T04:07:16.576Z,0.25
2023-05-03T04:08:16.561Z,0.21
2023-05-03T04:09:16.570Z,0.28
2023-05-03T04:10:16.555Z,0.26
2023-05-03T04:11:16.543Z,0.23
2023-05-03T04:12:16.526Z,0.32
2023-05-03T04:13:16.526Z,0.32
2023-05-03T04:14:16.539Z,0.19
2023-05-03T04:15:16.530Z,0.19
2023-05-03T04:16:16.510Z,0.29
2023-05-03T04:17:16.502Z,0.12
2023-05-03T04:18:16.489Z,0.16
2023-05-03T04:19:16.741Z,0.31
2023-05-03T04:20:16.502Z,0.34
2023-05-03T04:21:16.489Z,0.34
2023-05-03T04:22:16.469Z,0.40
2023-05-03T04:23:16.452Z,0.31
2023-05-03T04:24:16.497Z,0.32
2023-05-03T04:25:16.448Z,0.32
2023-05-03T04:26:30.029Z,0.28
2023-05-03T04:27:18.437Z,0.43
2023-05-03T04:28:16.440Z,0.47
2023-05-03T04:29:16.461Z,0.58
2023-05-03T04:30:16.592Z,0.58
2023-05-03T04:31:16.676Z,0.70
2023-05-03T04:32:16.421Z,0.62
2023-05-03T04:33:16.470Z,0.81
2023-05-03T04:34:16.447Z,0.80
2023-05-03T04:35:16.408Z,0.77
2023-05-03T04:36:16.396Z,0.73
2023-05-03T04:37:16.583Z,0.69
2023-05-03T04:38:16.387Z,0.74
2023-05-03T04:39:16.368Z,0.83
2023-05-03T04:40:16.359Z,0.99
2023-05-03T04:41:16.366Z,0.94
2023-05-03T04:42:16.360Z,0.86
2023-05-03T04:43:16.615Z,0.87
2023-05-03T04:44:16.402Z,0.78
2023-05-03T04:45:16.432Z,0.91
2023-05-03T04:46:16.350Z,1.04
2023-05-03T04:47:16.415Z,0.99
2023-05-03T04:48:16.484Z,1.12
2023-05-03T04:49:16.297Z,1.34
2023-05-03T04:50:16.336Z,1.38
2023-05-03T04:51:16.296Z,1.40
2023-05-03T04:52:16.363Z,1.49
2023-05-03T04:53:16.323Z,1.55
2023-05-03T04:54:16.429Z,1.70
2023-05-03T04:55:16.567Z,1.76
2023-05-03T04:56:16.254Z,1.94
2023-05-03T04:57:17.016Z,1.87
2023-05-03T04:58:17.024Z,1.95
2023-05-03T04:59:16.420Z,2.00
2023-05-03T05:00:16.531Z,1.84
2023-05-03T05:01:16.567Z,1.92
2023-05-03T05:02:16.340Z,1.95
2023-05-03T05:03:16.393Z,1.81
2023-05-03T05:04:16.567Z,2.00
2023-05-03T05:05:17.969Z,2.14
2023-05-03T05:06:16.504Z,2.08
2023-05-03T05:07:17.028Z,2.15
2023-05-03T05:08:17.000Z,2.10
2023-05-03T05:09:16.295Z,2.22
2023-05-03T05:10:16.320Z,2.25
2023-05-03T05:11:16.463Z,2.33
2023-05-03T05:12:16.421Z,2.42
2023-05-03T05:13:16.459Z,2.44
2023-05-03T05:14:16.627Z,2.47
2023-05-03T05:15:16.232Z,2.53
2023-05-03T05:16:17.116Z,2.61
2023-05-03T05:17:16.591Z,2.65
2023-05-03T05:18:16.301Z,2.57
2023-05-03T05:19:17.006Z,2.77
2023-05-03T05:20:17.086Z,2.90
2023-05-03T05:21:17.097Z,3.00
2023-05-03T05:22:16.391Z,3.07
2023-05-03T05:23:17.023Z,3.08
2023-05-03T05:24:16.270Z,3.23
2023-05-03T05:25:16.320Z,3.22
2023-05-03T05:26:16.218Z,3.36
2023-05-03T05:27:16.987Z,3.41
2023-05-03T05:28:16.280Z,3.59
2023-05-03T05:29:16.223Z,3.51
2023-05-03T05:30:16.457Z,3.74
2023-05-03T05:31:16.281Z,3.78
2023-05-03T05:32:16.396Z,3.83
2023-05-03T05:33:18.392Z,3.98
2023-05-03T05:34:17.054Z,3.99
2023-05-03T05:35:16.044Z,3.88
2023-05-03T05:36:16.259Z,3.91
2023-05-03T05:37:16.000Z,3.95
2023-05-03T05:38:15.984Z,4.05
2023-05-03T05:39:16.028Z,4.10
2023-05-03T05:40:16.017Z,4.13
2023-05-03T05:41:15.997Z,4.13
2023-05-03T05:42:15.961Z,4.14
2023-05-03T05:43:15.964Z,4.08
2023-05-03T05:44:15.972Z,4.12
2023-05-03T05:45:15.977Z,4.26
2023-05-03T05:46:15.977Z,4.32
2023-05-03T05:47:15.985Z,4.23
2023-05-03T05:48:15.969Z,4.28
2023-05-03T05:49:15.949Z,4.37
2023-05-03T05:50:18.509Z,4.26
2023-05-03T05:51:17.001Z,4.42
2023-05-03T05:52:15.905Z,4.55
2023-05-03T05:53:15.907Z,4.48
2023-05-03T05:54:15.913Z,4.67
2023-05-03T05:55:15.983Z,4.59
2023-05-03T05:56:15.886Z,4.66
2023-05-03T05:57:15.873Z,4.68
2023-05-03T05:58:16.020Z,4.63
2023-05-03T05:59:15.877Z,4.73
2023-05-03T06:00:15.849Z,4.77
2023-05-03T06:01:15.852Z,4.87
2023-05-03T06:02:15.852Z,4.99
2023-05-03T06:03:15.841Z,4.89
2023-05-03T06:04:15.827Z,4.90
2023-05-03T06:05:15.882Z,4.93
2023-05-03T06:06:15.808Z,5.04
2023-05-03T06:07:15.797Z,5.08
2023-05-03T06:08:15.801Z,5.21
2023-05-03T06:09:24.038Z,5.14
2023-05-03T06:10:17.784Z,5.17
2023-05-03T06:11:15.777Z,5.35
2023-05-03T06:12:15.765Z,5.28
2023-05-03T06:13:15.764Z,5.33
2023-05-03T06:14:15.766Z,5.30
2023-05-03T06:15:15.729Z,5.54
2023-05-03T06:16:15.733Z,5.53
2023-05-03T06:17:15.805Z,5.53
2023-05-03T06:18:15.787Z,5.66
2023-05-03T06:19:15.724Z,5.61
2023-05-03T06:20:15.698Z,5.71
2023-05-03T06:21:15.700Z,5.86
2023-05-03T06:22:15.681Z,5.91
2023-05-03T06:23:15.698Z,5.87
2023-05-03T06:24:15.693Z,6.09
2023-05-03T06:25:17.702Z,6.14
2023-05-03T06:26:15.667Z,6.09
2023-05-03T06:27:15.662Z,6.19
2023-05-03T06:28:15.640Z,6.35
2023-05-03T06:29:15.660Z,6.36
2023-05-03T06:30:15.634Z,6.54
2023-05-03T06:31:15.663Z,6.59
2023-05-03T06:32:15.613Z,6.62
2023-05-03T06:33:15.610Z,6.66
2023-05-03T06:34:15.608Z,6.66
2023-05-03T06:35:15.599Z,6.67
2023-05-03T06:36:15.587Z,6.63
2023-05-03T06:37:15.579Z,6.67
2023-05-03T06:38:15.577Z,6.67
2023-05-03T06:39:15.598Z,6.72
2023-05-03T06:40:15.578Z,6.69
2023-05-03T06:41:15.576Z,6.74
2023-05-03T06:42:15.558Z,6.75
2023-05-03T06:43:15.528Z,6.75
2023-05-03T06:44:15.578Z,6.82
2023-05-03T06:45:15.523Z,6.89
2023-05-03T06:46:16.707Z,6.93
2023-05-03T06:47:15.520Z,6.95
2023-05-03T06:48:15.635Z,7.10
2023-05-03T06:49:15.664Z,7.28
2023-05-03T06:50:15.508Z,7.18
2023-05-03T06:51:15.477Z,7.28
2023-05-03T06:52:15.462Z,7.42
2023-05-03T06:53:15.459Z,7.40
2023-05-03T06:54:15.494Z,7.31
2023-05-03T06:55:15.448Z,7.40
2023-05-03T06:56:15.518Z,7.35
2023-05-03T06:57:15.430Z,7.57
2023-05-03T06:58:15.421Z,7.57
2023-05-03T06:59:15.442Z,7.58
2023-05-03T07:00:16.367Z,7.66
2023-05-03T07:01:16.334Z,7.69
2023-05-03T07:02:15.406Z,7.72
2023-05-03T07:03:16.683Z,7.70
2023-05-03T07:04:15.456Z,7.70
2023-05-03T07:05:15.910Z,7.91
2023-05-03T07:06:15.415Z,7.87
2023-05-03T07:07:15.458Z,7.91
2023-05-03T07:08:15.355Z,7.87
2023-05-03T07:09:16.366Z,7.97
2023-05-03T07:10:15.376Z,7.97
2023-05-03T07:11:15.634Z,8.01
2023-05-03T07:12:15.346Z,8.10
2023-05-03T07:13:15.394Z,8.05
2023-05-03T07:14:15.354Z,8.03
2023-05-03T07:15:15.310Z,8.10
2023-05-03T07:16:15.348Z,8.16
2023-05-03T07:17:15.295Z,8.30
2023-05-03T07:18:15.900Z,8.30
2023-05-03T07:19:15.310Z,8.44
2023-05-03T07:20:15.275Z,8.48
2023-05-03T07:21:15.278Z,8.58
2023-05-03T07:22:15.266Z,8.56
2023-05-03T07:23:15.357Z,8.70
2023-05-03T07:24:15.268Z,8.89
2023-05-03T07:25:15.421Z,8.76
2023-05-03T07:26:15.351Z,8.70
2023-05-03T07:27:15.240Z,8.64
2023-05-03T07:28:15.892Z,8.69
2023-05-03T07:29:15.349Z,8.56
2023-05-03T07:30:15.271Z,8.64
2023-05-03T07:31:15.210Z,8.69
2023-05-03T07:32:15.204Z,8.71
2023-05-03T07:33:15.468Z,8.78
2023-05-03T07:34:15.219Z,8.89
2023-05-03T07:35:15.886Z,8.95
2023-05-03T07:36:15.166Z,9.14
2023-05-03T07:37:15.343Z,9.19
2023-05-03T07:38:15.230Z,9.25
2023-05-03T07:39:15.385Z,9.41
2023-05-03T07:40:15.364Z,9.44
2023-05-03T07:41:15.132Z,9.44
2023-05-03T07:42:15.893Z,9.48
2023-05-03T07:43:15.346Z,9.58
2023-05-03T07:44:15.143Z,9.65
2023-05-03T07:45:15.888Z,9.58
2023-05-03T07:46:15.244Z,9.66
2023-05-03T07:47:15.218Z,9.64
2023-05-03T07:48:15.194Z,9.76
2023-05-03T07:49:15.889Z,9.84
2023-05-03T07:50:15.454Z,9.82
2023-05-03T07:51:15.878Z,9.83
2023-05-03T07:52:15.885Z,9.87
2023-05-03T07:53:15.888Z,10.12
2023-05-03T07:54:15.884Z,10.09
2023-05-03T07:55:16.311Z,10.09
2023-05-03T07:56:15.888Z,10.09
2023-05-03T07:57:15.348Z,10.12
2023-05-03T07:58:15.896Z,10.10
2023-05-03T07:59:15.406Z,10.13
2023-05-03T08:00:15.174Z,10.19
2023-05-03T08:01:15.228Z,10.10
2023-05-03T08:02:15.526Z,9.99
2023-05-03T08:03:15.593Z,9.99
2023-05-03T08:04:16.164Z,10.10
2023-05-03T08:05:15.291Z,10.15
2023-05-03T08:06:15.215Z,10.40
2023-05-03T08:07:14.932Z,10.46
2023-05-03T08:08:15.233Z,10.41
2023-05-03T08:09:14.941Z,10.53
2023-05-03T08:10:15.900Z,10.42
2023-05-03T08:11:15.237Z,10.41
2023-05-03T08:12:14.917Z,10.38
2023-05-03T08:13:15.227Z,10.37
2023-05-03T08:14:15.307Z,10.54
2023-05-03T08:15:15.276Z,10.60
2023-05-03T08:16:14.921Z,10.64
2023-05-03T08:17:14.889Z,10.60
2023-05-03T08:18:14.898Z,10.78
2023-05-03T08:19:14.878Z,10.86
2023-05-03T08:20:14.875Z,10.69
2023-05-03T08:21:14.848Z,10.76
2023-05-03T08:22:14.898Z,10.75
2023-05-03T08:23:17.390Z,10.92
2023-05-03T08:24:16.100Z,10.92
2023-05-03T08:25:15.817Z,11.11
2023-05-03T08:26:15.149Z,11.22
2023-05-03T08:27:14.812Z,11.37
2023-05-03T08:28:14.805Z,11.52
2023-05-03T08:29:14.830Z,11.54
2023-05-03T08:30:14.824Z,11.68
2023-05-03T08:31:14.811Z,11.70
2023-05-03T08:32:14.763Z,11.63
2023-05-03T08:33:14.804Z,11.63
2023-05-03T08:34:14.780Z,11.73
2023-05-03T08:35:14.757Z,11.75
2023-05-03T08:36:14.748Z,11.68
2023-05-03T08:37:14.743Z,11.63
2023-05-03T08:38:14.768Z,11.68
2023-05-03T08:39:14.758Z,11.68
2023-05-03T08:40:14.721Z,12.09
2023-05-03T08:41:14.730Z,11.90
2023-05-03T08:42:14.698Z,11.97
2023-05-03T08:43:14.733Z,12.03
2023-05-03T08:44:14.787Z,12.27
2023-05-03T08:45:14.705Z,12.40
2023-05-03T08:46:14.717Z,12.58
2023-05-03T08:47:14.734Z,12.65
2023-05-03T08:48:14.790Z,12.67
2023-05-03T08:49:14.663Z,12.55
2023-05-03T08:50:14.675Z,12.46
2023-05-03T08:51:14.634Z,12.43
2023-05-03T08:52:14.701Z,12.61
2023-05-03T08:53:14.661Z,12.49
2023-05-03T08:54:14.614Z,12.32
2023-05-03T08:55:14.610Z,12.27
2023-05-03T08:56:14.605Z,12.25
2023-05-03T08:57:14.626Z,12.47
2023-05-03T08:58:14.611Z,12.43
2023-05-03T08:59:14.579Z,12.42
2023-05-03T09:00:14.605Z,12.57
2023-05-03T09:01:14.557Z,12.61
2023-05-03T09:02:14.640Z,12.64
2023-05-03T09:03:14.639Z,12.55
2023-05-03T09:04:14.644Z,12.64
2023-05-03T09:05:14.551Z,12.79
2023-05-03T09:06:14.548Z,12.70
2023-05-03T09:07:14.551Z,12.64
2023-05-03T09:08:17.280Z,12.80
2023-05-03T09:09:14.526Z,12.90
2023-05-03T09:10:14.505Z,12.75
2023-05-03T09:11:14.509Z,12.13
2023-05-03T09:12:14.526Z,12.29
2023-05-03T09:13:14.475Z,12.37
2023-05-03T09:14:14.567Z,12.21
2023-05-03T09:15:14.451Z,12.25
2023-05-03T09:16:14.535Z,12.36
2023-05-03T09:17:14.459Z,12.22
2023-05-03T09:18:14.452Z,12.36
2023-05-03T09:19:14.464Z,12.70
2023-05-03T09:20:14.442Z,12.91
2023-05-03T09:21:14.411Z,13.23
2023-05-03T09:22:14.421Z,12.82
2023-05-03T09:23:14.442Z,12.91
2023-05-03T09:24:14.554Z,13.16
2023-05-03T09:25:14.458Z,13.28
2023-05-03T09:26:14.389Z,13.27
2023-05-03T09:27:14.392Z,13.28
2023-05-03T09:28:14.388Z,13.12
2023-05-03T09:29:14.436Z,13.31
2023-05-03T09:30:14.365Z,13.18
2023-05-03T09:31:14.380Z,13.12
2023-05-03T09:32:14.439Z,13.37
2023-05-03T09:33:15.346Z,13.54
2023-05-03T09:34:14.395Z,13.38
2023-05-03T09:35:14.327Z,13.37
2023-05-03T09:36:14.311Z,13.35
2023-05-03T09:37:14.372Z,13.68
2023-05-03T09:38:14.333Z,13.81
2023-05-03T09:39:14.326Z,13.85
2023-05-03T09:40:14.274Z,13.67
2023-05-03T09:41:14.292Z,13.52
2023-05-03T09:42:14.373Z,13.59
2023-05-03T09:43:14.304Z,13.97
2023-05-03T09:44:14.292Z,14.20
2023-05-03T09:45:14.249Z,14.43
2023-05-03T09:46:14.327Z,14.77
2023-05-03T09:47:14.248Z,15.06
2023-05-03T09:48:14.397Z,15.27
2023-05-03T09:49:15.626Z,15.18
2023-05-03T09:50:14.226Z,14.68
2023-05-03T09:51:14.306Z,14.18
2023-05-03T09:52:14.394Z,14.47
2023-05-03T09:53:14.214Z,14.88
2023-05-03T09:54:14.246Z,15.17
2023-05-03T09:55:14.202Z,15.27
2023-05-03T09:56:14.194Z,15.40
2023-05-03T09:57:14.311Z,15.65
2023-05-03T09:58:14.164Z,15.73
2023-05-03T09:59:14.296Z,15.65
2023-05-03T10:00:14.165Z,15.83
2023-05-03T10:01:14.203Z,16.01
2023-05-03T10:02:14.149Z,16.54
2023-05-03T10:03:14.161Z,16.53
2023-05-03T10:04:14.233Z,16.58
2023-05-03T10:05:14.137Z,16.64
2023-05-03T10:06:14.107Z,16.57
2023-05-03T10:07:14.104Z,16.42
2023-05-03T10:08:14.128Z,16.51
2023-05-03T10:09:14.093Z,16.23
2023-05-03T10:10:14.091Z,16.43
2023-05-03T10:11:14.070Z,16.97
2023-05-03T10:12:14.080Z,17.54
2023-05-03T10:13:14.050Z,17.70
2023-05-03T10:14:14.078Z,17.65
2023-05-03T10:15:14.082Z,17.89
2023-05-03T10:16:14.058Z,18.31
2023-05-03T10:17:14.026Z,17.90
2023-05-03T10:18:14.080Z,17.27
2023-05-03T10:19:14.496Z,17.74
2023-05-03T10:20:15.251Z,18.34
2023-05-03T10:21:13.993Z,18.68
2023-05-03T10:22:14.007Z,18.45
2023-05-03T10:23:13.998Z,18.49
2023-05-03T10:24:14.012Z,18.59
2023-05-03T10:25:15.420Z,18.89
2023-05-03T10:26:15.268Z,18.63
2023-05-03T10:27:13.964Z,18.62
2023-05-03T10:28:13.950Z,18.80
2023-05-03T10:29:13.961Z,18.52
2023-05-03T10:30:13.948Z,18.93
2023-05-03T10:31:13.978Z,18.96
2023-05-03T10:32:13.924Z,19.15
2023-05-03T10:33:14.022Z,18.62
2023-05-03T10:34:13.900Z,18.92
2023-05-03T10:35:13.932Z,19.11
2023-05-03T10:36:13.897Z,18.47
2023-05-03T10:37:13.910Z,18.84
2023-05-03T10:38:13.892Z,19.77
2023-05-03T10:39:13.885Z,19.45
2023-05-03T10:40:14.063Z,19.88
2023-05-03T10:41:13.856Z,20.09
2023-05-03T10:42:14.131Z,19.56
2023-05-03T10:43:13.856Z,19.48
2023-05-03T10:44:13.837Z,19.22
2023-05-03T10:45:13.827Z,19.00
2023-05-03T10:46:13.825Z,19.07
2023-05-03T10:47:13.830Z,19.48
2023-05-03T10:48:13.822Z,19.59
2023-05-03T10:49:13.798Z,19.55
2023-05-03T10:50:13.805Z,19.92
2023-05-03T10:51:13.818Z,20.51
2023-05-03T10:52:13.780Z,20.70
2023-05-03T10:53:13.999Z,20.93
2023-05-03T10:54:13.777Z,21.21
2023-05-03T10:55:13.782Z,20.39
2023-05-03T10:56:13.781Z,20.52
2023-05-03T10:57:13.842Z,20.85
2023-05-03T10:58:13.749Z,21.11
2023-05-03T10:59:13.717Z,19.69
2023-05-03T11:00:13.748Z,19.76
2023-05-03T11:01:14.049Z,18.95
2023-05-03T11:02:13.695Z,18.23
2023-05-03T11:03:13.745Z,18.10
2023-05-03T11:04:13.790Z,18.52
2023-05-03T11:05:13.885Z,19.33
2023-05-03T11:06:13.754Z,19.99
2023-05-03T11:07:13.721Z,20.09
2023-05-03T11:08:13.652Z,19.86
2023-05-03T11:09:13.727Z,19.85
2023-05-03T11:10:13.620Z,20.34
2023-05-03T11:11:13.640Z,20.88
2023-05-03T11:12:13.661Z,20.58
2023-05-03T11:13:13.624Z,20.36
2023-05-03T11:14:13.692Z,20.03
2023-05-03T11:15:13.609Z,20.74
2023-05-03T11:16:13.608Z,21.25
2023-05-03T11:17:13.597Z,22.00
2023-05-03T11:18:13.681Z,22.04
2023-05-03T11:19:13.630Z,21.57
2023-05-03T11:20:13.555Z,21.62
2023-05-03T11:21:13.562Z,21.24
2023-05-03T11:22:13.553Z,20.87
2023-05-03T11:23:13.552Z,20.40
2023-05-03T11:24:13.675Z,20.24
2023-05-03T11:25:15.142Z,19.69
2023-05-03T11:26:13.613Z,20.55
2023-05-03T11:27:13.676Z,20.58
2023-05-03T11:28:13.521Z,20.65
2023-05-03T11:29:13.584Z,20.88
2023-05-03T11:30:13.502Z,21.55
2023-05-03T11:31:13.646Z,21.45
2023-05-03T11:32:13.557Z,21.64
2023-05-03T11:33:13.559Z,21.27
2023-05-03T11:34:13.510Z,21.40
2023-05-03T11:35:13.457Z,21.95
2023-05-03T11:36:13.477Z,22.48
2023-05-03T11:37:13.463Z,21.82
2023-05-03T11:38:13.447Z,22.36
2023-05-03T11:39:13.439Z,22.78
2023-05-03T11:40:13.943Z,23.31
2023-05-03T11:41:13.438Z,22.90
2023-05-03T11:42:13.465Z,22.99
2023-05-03T11:43:13.488Z,22.83
2023-05-03T11:44:17.662Z,23.08
2023-05-03T11:45:14.435Z,22.90
2023-05-03T11:46:13.603Z,22.76
2023-05-03T11:47:13.524Z,22.39
2023-05-03T11:48:13.585Z,21.36
2023-05-03T11:49:13.384Z,21.39
2023-05-03T11:50:13.627Z,21.14
2023-05-03T11:51:13.343Z,21.45
2023-05-03T11:52:13.352Z,22.02
2023-05-03T11:53:13.370Z,22.55
2023-05-03T11:54:24.938Z,22.44
2023-05-03T11:55:15.377Z,22.06
2023-05-03T11:56:13.318Z,22.22
2023-05-03T11:57:13.335Z,21.73
2023-05-03T11:58:13.303Z,21.55
2023-05-03T11:59:13.355Z,22.08
2023-05-03T12:00:13.334Z,22.55
2023-05-03T12:01:13.277Z,22.36
2023-05-03T12:02:13.391Z,22.84
2023-05-03T12:03:13.410Z,22.84
2023-05-03T12:04:13.418Z,21.00
2023-05-03T12:05:14.367Z,21.29
2023-05-03T12:06:13.677Z,21.48
2023-05-03T12:07:13.987Z,21.93
2023-05-03T12:08:16.077Z,22.33
2023-05-03T12:09:14.437Z,22.90
2023-05-03T12:10:16.743Z,22.85
2023-05-03T12:11:17.253Z,23.03
2023-05-03T12:12:15.602Z,23.24
2023-05-03T12:13:17.270Z,23.17
2023-05-03T12:14:13.323Z,23.02
2023-05-03T12:15:15.670Z,21.99
2023-05-03T12:16:14.696Z,20.82
2023-05-03T12:17:15.806Z,21.02
2023-05-03T12:18:13.553Z,20.99
2023-05-03T12:19:15.884Z,21.77
2023-05-03T12:20:51.111Z,22.51
2023-05-03T12:22:25.217Z,21.29
2023-05-03T12:23:15.877Z,20.41
2023-05-03T12:24:14.984Z,21.50
2023-05-03T12:25:15.592Z,21.98
2023-05-03T12:26:14.530Z,22.45
2023-05-03T12:27:14.389Z,23.03
2023-05-03T12:28:20.486Z,22.87
2023-05-03T12:29:15.131Z,22.81
2023-05-03T12:30:13.412Z,22.69
2023-05-03T12:31:13.322Z,21.33
2023-05-03T12:32:14.136Z,21.58
2023-05-03T12:33:15.410Z,22.13
2023-05-03T12:34:32.783Z,22.91
2023-05-03T12:35:15.658Z,23.61
2023-05-03T12:36:14.848Z,23.47
2023-05-03T12:37:17.030Z,22.59
2023-05-03T12:38:16.471Z,22.68
2023-05-03T12:39:16.344Z,22.90
2023-05-03T12:40:32.693Z,22.57
2023-05-03T12:41:17.924Z,22.80
2023-05-03T12:42:15.316Z,23.39
2023-05-03T12:43:14.057Z,23.43
2023-05-03T12:44:16.531Z,23.32
2023-05-03T12:45:13.206Z,23.32
2023-05-03T12:46:33.255Z,22.88
2023-05-03T12:47:19.492Z,22.33
2023-05-03T12:48:15.128Z,21.58
2023-05-03T12:50:18.305Z,22.32
2023-05-03T12:52:36.139Z,23.58
2023-05-03T12:53:17.040Z,23.12
2023-05-03T12:54:16.941Z,23.18
2023-05-03T12:55:18.055Z,22.96
2023-05-03T12:56:14.030Z,22.90
2023-05-03T12:57:15.938Z,22.96
2023-05-03T12:58:43.181Z,23.32
2023-05-03T13:00:15.337Z,23.55
2023-05-03T13:05:33.070Z,24.50
2023-05-03T13:06:15.356Z,24.51
2023-05-03T13:07:14.259Z,23.23
2023-05-03T13:08:20.340Z,22.88
2023-05-03T13:09:19.993Z,23.81
2023-05-03T13:11:13.998Z,24.39
2023-05-03T13:12:12.939Z,24.66
2023-05-03T13:13:12.811Z,24.69
2023-05-03T13:14:12.786Z,24.93
2023-05-03T13:15:12.820Z,25.59
2023-05-03T13:16:12.824Z,25.53